Аэропорт: Новокузнецк-Спиченково. Новокузнецк

ICAO: UNWW

METAR:
2024-07-24 14:30:00
UNWW 241430Z 03001MPS CAVOK 23/17 Q1004 R01/09//55 NOSIG RMK QFE726
TAF:
2024-07-24 14:00:00
TAF UNWW 241400Z 2415/2515 36003G08MPS 9999 SCT040 TX29/2509Z TN16/2422Z 
  TEMPO 2420/2502 0300 FG BKN001 
  BECMG 2502/2504 BKN040CB 
  TEMPO 2504/2515 -TSRA